createdAt,value
2023-04-23T00:00:44.016Z,10.88
2023-04-23T00:01:49.148Z,10.63
2023-04-23T00:02:53.369Z,10.73
2023-04-23T00:03:57.399Z,10.77
2023-04-23T00:05:04.469Z,10.75
2023-04-23T00:06:10.235Z,10.43
2023-04-23T00:07:14.158Z,10.32
2023-04-23T00:08:19.714Z,10.65
2023-04-23T00:09:23.186Z,11.00
2023-04-23T00:10:26.941Z,9.65
2023-04-23T00:11:29.426Z,10.40
2023-04-23T00:12:32.786Z,10.15
2023-04-23T00:13:35.401Z,9.90
2023-04-23T00:14:38.682Z,10.50
2023-04-23T00:15:40.920Z,9.25
2023-04-23T00:16:44.592Z,9.98
2023-04-23T00:17:46.693Z,10.18
2023-04-23T00:18:49.471Z,9.13
2023-04-23T00:19:51.761Z,10.23
2023-04-23T00:20:54.528Z,8.95
2023-04-23T00:21:56.385Z,10.02
2023-04-23T00:22:59.233Z,10.38
2023-04-23T00:24:02.388Z,9.95
2023-04-23T00:25:05.691Z,10.45
2023-04-23T00:26:07.534Z,11.55
2023-04-23T00:27:10.786Z,10.63
2023-04-23T00:28:12.576Z,10.52
2023-04-23T00:29:17.401Z,13.05
2023-04-23T00:30:19.448Z,13.77
2023-04-23T00:31:22.790Z,13.88
2023-04-23T00:32:24.764Z,14.60
2023-04-23T00:33:27.528Z,14.20
2023-04-23T00:34:29.576Z,13.07
2023-04-23T00:35:32.377Z,11.85
2023-04-23T00:36:34.186Z,13.00
2023-04-23T00:37:37.145Z,12.25
2023-04-23T00:38:39.210Z,11.20
2023-04-23T00:39:43.386Z,11.85
2023-04-23T00:40:45.192Z,13.23
2023-04-23T00:41:51.202Z,11.38
2023-04-23T00:42:54.365Z,12.57
2023-04-23T00:43:58.375Z,13.30
2023-04-23T00:45:01.628Z,12.95
2023-04-23T00:46:04.802Z,13.15
2023-04-23T00:47:08.809Z,12.70
2023-04-23T00:48:12.452Z,12.02
2023-04-23T00:49:14.537Z,12.73
2023-04-23T00:50:17.401Z,11.40
2023-04-23T00:51:21.324Z,11.45
2023-04-23T00:52:24.077Z,11.25
2023-04-23T00:53:26.604Z,11.73
2023-04-23T00:54:29.682Z,11.75
2023-04-23T00:55:33.009Z,10.60
2023-04-23T00:56:36.237Z,11.32
2023-04-23T00:57:38.358Z,10.90
2023-04-23T00:58:41.910Z,10.68
2023-04-23T00:59:43.974Z,9.98
2023-04-23T01:00:48.663Z,10.35
2023-04-23T01:01:50.604Z,10.48
2023-04-23T01:02:54.847Z,10.57
2023-04-23T01:03:56.926Z,10.43
2023-04-23T01:05:01.109Z,10.70
2023-04-23T01:06:03.117Z,9.40
2023-04-23T01:07:06.064Z,10.20
2023-04-23T01:08:09.052Z,10.27
2023-04-23T01:09:12.290Z,9.95
2023-04-23T01:10:14.237Z,9.25
2023-04-23T01:11:19.659Z,9.70
2023-04-23T01:12:21.482Z,9.80
2023-04-23T01:13:29.627Z,9.90
2023-04-23T01:15:59.422Z,11.45
2023-04-23T01:17:03.008Z,11.07
2023-04-23T01:18:07.920Z,12.68
2023-04-23T01:19:10.860Z,12.25
2023-04-23T01:20:13.964Z,11.13
2023-04-23T01:21:17.197Z,11.10
2023-04-23T01:22:21.578Z,11.52
2023-04-23T01:23:23.388Z,11.05
2023-04-23T01:24:26.233Z,10.10
2023-04-23T01:25:28.314Z,11.48
2023-04-23T01:26:31.739Z,11.65
2023-04-23T01:27:36.013Z,11.00
2023-04-23T01:28:39.230Z,10.43
2023-04-23T01:29:41.519Z,11.23
2023-04-23T01:30:45.060Z,12.23
2023-04-23T01:31:47.316Z,10.85
2023-04-23T01:32:50.395Z,12.52
2023-04-23T01:33:53.404Z,12.18
2023-04-23T01:34:57.488Z,11.02
2023-04-23T01:36:00.239Z,9.98
2023-04-23T01:37:03.417Z,11.00
2023-04-23T01:38:07.953Z,11.80
2023-04-23T01:39:10.813Z,9.82
2023-04-23T01:40:12.798Z,11.50
2023-04-23T01:41:16.427Z,10.32
2023-04-23T01:42:18.263Z,11.50
2023-04-23T01:43:21.499Z,10.98
2023-04-23T01:44:23.558Z,10.43
2023-04-23T01:45:26.459Z,9.75
2023-04-23T01:46:28.486Z,10.00
2023-04-23T01:47:32.303Z,9.93
2023-04-23T01:48:34.278Z,10.23
2023-04-23T01:49:37.080Z,10.55
2023-04-23T01:50:39.410Z,9.63
2023-04-23T01:51:42.618Z,9.30
2023-04-23T01:52:45.633Z,9.00
2023-04-23T01:53:49.852Z,9.88
2023-04-23T01:54:51.868Z,9.82
2023-04-23T01:55:56.032Z,9.80
2023-04-23T01:56:59.161Z,9.32
2023-04-23T01:58:02.545Z,9.25
2023-04-23T01:59:04.394Z,9.45
2023-04-23T02:00:09.301Z,9.45
2023-04-23T02:01:13.666Z,9.57
2023-04-23T02:02:16.571Z,9.30
2023-04-23T02:03:18.683Z,9.18
2023-04-23T02:04:21.774Z,9.25
2023-04-23T02:05:24.364Z,9.65
2023-04-23T02:06:27.565Z,9.77
2023-04-23T02:07:29.576Z,9.95
2023-04-23T02:08:32.366Z,10.80
2023-04-23T02:09:35.717Z,9.18
2023-04-23T02:10:38.561Z,9.90
2023-04-23T02:11:40.532Z,9.18
2023-04-23T02:12:43.662Z,9.07
2023-04-23T02:13:45.450Z,8.68
2023-04-23T02:14:48.253Z,8.88
2023-04-23T02:15:50.337Z,9.88
2023-04-23T02:16:53.129Z,9.25
2023-04-23T02:17:55.082Z,9.93
2023-04-23T02:18:58.069Z,8.93
2023-04-23T02:20:02.897Z,9.27
2023-04-23T02:21:06.273Z,9.55
2023-04-23T02:22:09.284Z,9.63
2023-04-23T02:23:12.152Z,9.77
2023-04-23T02:24:14.028Z,9.70
2023-04-23T02:25:18.324Z,9.38
2023-04-23T02:26:20.163Z,9.48
2023-04-23T02:27:22.987Z,10.60
2023-04-23T02:28:25.060Z,11.25
2023-04-23T02:29:27.802Z,10.02
2023-04-23T02:30:29.592Z,9.68
2023-04-23T02:31:32.506Z,9.43
2023-04-23T02:32:34.431Z,10.05
2023-04-23T02:33:37.261Z,9.52
2023-04-23T02:34:39.371Z,10.30
2023-04-23T02:35:42.325Z,10.40
2023-04-23T02:36:45.093Z,9.35
2023-04-23T02:37:46.960Z,9.15
2023-04-23T02:38:51.235Z,9.30
2023-04-23T02:39:53.123Z,9.13
2023-04-23T02:40:57.386Z,9.90
2023-04-23T02:41:59.342Z,9.10
2023-04-23T02:43:02.080Z,8.52
2023-04-23T02:44:04.042Z,9.90
2023-04-23T02:45:08.398Z,8.48
2023-04-23T02:46:10.257Z,9.63
2023-04-23T02:47:13.118Z,9.52
2023-04-23T02:48:15.212Z,9.18
2023-04-23T02:49:20.079Z,9.73
2023-04-23T02:50:22.114Z,9.48
2023-04-23T02:51:24.905Z,9.30
2023-04-23T02:52:26.705Z,9.75
2023-04-23T02:53:29.741Z,9.15
2023-04-23T02:54:32.479Z,9.02
2023-04-23T02:55:35.402Z,10.45
2023-04-23T02:56:38.683Z,8.98
2023-04-23T02:57:41.784Z,9.40
2023-04-23T02:58:43.666Z,8.93
2023-04-23T02:59:47.109Z,9.00
2023-04-23T03:00:50.805Z,9.18
2023-04-23T03:01:53.641Z,9.85
2023-04-23T03:02:56.174Z,10.23
2023-04-23T03:03:59.346Z,9.55
2023-04-23T03:05:01.451Z,9.07
2023-04-23T03:06:06.722Z,10.27
2023-04-23T03:07:08.621Z,9.55
2023-04-23T03:08:11.791Z,9.70
2023-04-23T03:09:13.678Z,9.27
2023-04-23T03:10:16.818Z,9.60
2023-04-23T03:11:18.631Z,9.40
2023-04-23T03:12:23.183Z,9.88
2023-04-23T03:13:26.248Z,9.30
2023-04-23T03:14:29.121Z,8.90
2023-04-23T03:15:31.165Z,9.35
2023-04-23T03:16:34.314Z,8.18
2023-04-23T03:17:36.180Z,8.43
2023-04-23T03:18:39.287Z,8.95
2023-04-23T03:19:41.135Z,8.73
2023-04-23T03:20:44.148Z,9.80
2023-04-23T03:21:46.047Z,9.40
2023-04-23T03:22:48.826Z,8.10
2023-04-23T03:23:51.013Z,8.80
2023-04-23T03:24:53.856Z,8.80
2023-04-23T03:25:56.091Z,10.50
2023-04-23T03:26:59.040Z,9.63
2023-04-23T03:28:02.212Z,9.50
2023-04-23T03:29:06.244Z,8.93
2023-04-23T03:30:09.453Z,10.15
2023-04-23T03:31:12.823Z,9.88
2023-04-23T03:32:14.919Z,8.48
2023-04-23T03:33:17.983Z,7.88
2023-04-23T03:34:19.868Z,8.15
2023-04-23T03:35:22.833Z,8.63
2023-04-23T03:36:26.458Z,8.80
2023-04-23T03:37:28.409Z,8.80
2023-04-23T03:38:31.145Z,8.27
2023-04-23T03:39:34.186Z,9.65
2023-04-23T03:40:37.082Z,9.32
2023-04-23T03:41:41.416Z,9.20
2023-04-23T03:42:45.963Z,9.60
2023-04-23T03:43:51.249Z,10.38
2023-04-23T03:45:13.304Z,10.13
2023-04-23T03:46:15.385Z,10.07
2023-04-23T03:47:18.809Z,9.38
2023-04-23T03:48:21.553Z,10.75
2023-04-23T03:49:24.477Z,10.27
2023-04-23T03:50:26.711Z,9.65
2023-04-23T03:51:42.770Z,10.20
2023-04-23T03:52:44.985Z,9.88
2023-04-23T03:53:55.158Z,10.45
2023-04-23T03:55:29.197Z,9.38
2023-04-23T03:56:32.317Z,9.63
2023-04-23T03:57:49.930Z,9.18
2023-04-23T03:59:01.007Z,9.05
2023-04-23T04:00:04.812Z,9.85
2023-04-23T04:01:15.026Z,9.18
2023-04-23T04:02:18.109Z,9.30
2023-04-23T04:03:20.290Z,9.32
2023-04-23T04:04:23.453Z,9.73
2023-04-23T04:05:26.028Z,10.45
2023-04-23T04:06:30.029Z,10.18
2023-04-23T04:07:31.861Z,10.68
2023-04-23T04:08:35.045Z,9.60
2023-04-23T04:09:37.274Z,9.60
2023-04-23T04:10:40.890Z,10.55
2023-04-23T04:11:42.672Z,9.70
2023-04-23T04:12:47.723Z,9.73
2023-04-23T04:13:49.638Z,10.93
2023-04-23T04:14:53.752Z,10.15
2023-04-23T04:15:56.015Z,10.25
2023-04-23T04:16:58.793Z,9.65
2023-04-23T04:18:01.177Z,11.05
2023-04-23T04:19:04.725Z,10.38
2023-04-23T04:20:08.086Z,10.73
2023-04-23T04:21:10.874Z,10.10
2023-04-23T04:22:12.898Z,10.43
2023-04-23T04:23:15.826Z,10.07
2023-04-23T04:24:18.473Z,9.95
2023-04-23T04:25:22.207Z,10.15
2023-04-23T04:26:24.139Z,10.55
2023-04-23T04:27:27.125Z,10.48
2023-04-23T04:28:29.372Z,10.68
2023-04-23T04:29:32.567Z,11.05
2023-04-23T04:30:36.015Z,11.18
2023-04-23T04:31:39.117Z,11.77
2023-04-23T04:32:42.147Z,10.88
2023-04-23T04:33:46.317Z,11.00
2023-04-23T04:34:48.250Z,11.65
2023-04-23T04:35:51.010Z,11.15
2023-04-23T04:36:53.835Z,10.98
2023-04-23T04:37:56.661Z,10.57
2023-04-23T04:38:58.732Z,10.73
2023-04-23T04:40:03.046Z,10.70
2023-04-23T04:41:05.189Z,10.93
2023-04-23T04:42:07.952Z,10.13
2023-04-23T04:43:10.147Z,10.45
2023-04-23T04:44:14.240Z,10.48
2023-04-23T04:45:17.344Z,9.52
2023-04-23T04:46:21.452Z,11.48
2023-04-23T04:47:23.327Z,11.25
2023-04-23T04:48:26.106Z,10.80
2023-04-23T04:49:27.871Z,10.90
2023-04-23T04:50:30.808Z,10.85
2023-04-23T04:51:32.573Z,11.45
2023-04-23T04:52:36.436Z,11.85
2023-04-23T04:53:38.333Z,10.73
2023-04-23T04:54:41.779Z,11.65
2023-04-23T04:55:44.088Z,11.30
2023-04-23T04:56:46.870Z,11.38
2023-04-23T04:57:48.677Z,11.18
2023-04-23T04:58:51.408Z,11.52
2023-04-23T04:59:53.869Z,12.10
2023-04-23T05:00:57.459Z,13.32
2023-04-23T05:02:00.684Z,12.98
2023-04-23T05:03:04.112Z,12.38
2023-04-23T05:04:06.294Z,13.35
2023-04-23T05:05:09.578Z,12.52
2023-04-23T05:06:11.507Z,12.75
2023-04-23T05:07:14.228Z,13.13
2023-04-23T05:08:16.825Z,12.23
2023-04-23T05:09:19.697Z,12.80
2023-04-23T05:10:21.701Z,12.60
2023-04-23T05:11:24.676Z,12.75
2023-04-23T05:12:26.902Z,12.73
2023-04-23T05:13:29.676Z,13.98
2023-04-23T05:14:31.460Z,13.98
2023-04-23T05:15:34.498Z,14.40
2023-04-23T05:16:36.407Z,12.57
2023-04-23T05:17:40.627Z,11.73
2023-04-23T05:18:43.647Z,12.00
2023-04-23T05:19:45.432Z,12.43
2023-04-23T05:20:48.360Z,11.98
2023-04-23T05:21:50.296Z,11.88
2023-04-23T05:22:53.091Z,11.77
2023-04-23T05:23:54.982Z,11.75
2023-04-23T05:24:57.852Z,11.25
2023-04-23T05:25:59.748Z,11.40
2023-04-23T05:27:02.719Z,12.02
2023-04-23T05:28:05.073Z,11.43
2023-04-23T05:29:07.881Z,11.45
2023-04-23T05:30:10.767Z,11.95
2023-04-23T05:31:14.054Z,11.75
2023-04-23T05:32:16.078Z,11.82
2023-04-23T05:33:20.359Z,11.07
2023-04-23T05:34:22.207Z,11.10
2023-04-23T05:35:24.965Z,10.77
2023-04-23T05:36:27.427Z,9.68
2023-04-23T05:37:30.925Z,10.93
2023-04-23T05:38:33.262Z,10.98
2023-04-23T05:39:36.060Z,10.82
2023-04-23T05:40:37.973Z,10.48
2023-04-23T05:41:40.737Z,10.82
2023-04-23T05:42:42.581Z,10.15
2023-04-23T05:43:45.429Z,10.48
2023-04-23T05:44:47.324Z,9.60
2023-04-23T05:45:50.097Z,10.35
2023-04-23T05:46:51.948Z,10.25
2023-04-23T05:47:54.915Z,10.68
2023-04-23T05:48:58.080Z,10.75
2023-04-23T05:50:01.662Z,9.40
2023-04-23T05:51:03.555Z,10.77
2023-04-23T05:52:06.400Z,10.20
2023-04-23T05:53:08.811Z,10.05
2023-04-23T05:54:11.555Z,9.60
2023-04-23T05:55:15.647Z,10.32
2023-04-23T05:56:18.640Z,9.10
2023-04-23T05:57:20.469Z,9.50
2023-04-23T05:58:23.226Z,9.07
2023-04-23T05:59:25.693Z,10.68
2023-04-23T06:00:28.783Z,10.53
2023-04-23T06:01:31.929Z,9.32
2023-04-23T06:02:33.891Z,9.85
2023-04-23T06:03:37.593Z,9.63
2023-04-23T06:04:41.401Z,10.63
2023-04-23T06:05:44.685Z,9.43
2023-04-23T06:06:46.568Z,9.00
2023-04-23T06:07:49.336Z,9.38
2023-04-23T06:08:51.635Z,9.97
2023-04-23T06:09:54.413Z,9.93
2023-04-23T06:10:56.242Z,8.50
2023-04-23T06:11:59.097Z,8.00
2023-04-23T06:13:00.965Z,8.03
2023-04-23T06:14:04.349Z,8.70
2023-04-23T06:15:08.241Z,8.37
2023-04-23T06:16:11.515Z,8.10
2023-04-23T06:17:13.400Z,8.10
2023-04-23T06:18:16.328Z,8.40
2023-04-23T06:19:18.173Z,8.50
2023-04-23T06:20:22.270Z,8.07
2023-04-23T06:21:24.881Z,7.70
2023-04-23T06:22:27.637Z,7.53
2023-04-23T06:23:30.429Z,7.40
2023-04-23T06:24:32.514Z,7.73
2023-04-23T06:25:35.245Z,7.80
2023-04-23T06:26:37.005Z,6.87
2023-04-23T06:27:47.717Z,7.47
2023-04-23T06:28:54.895Z,7.13
2023-04-23T06:30:12.679Z,8.20
2023-04-23T06:31:15.974Z,7.73
2023-04-23T06:32:20.761Z,7.27
2023-04-23T06:33:22.661Z,7.50
2023-04-23T06:34:25.508Z,7.07
2023-04-23T06:35:30.097Z,7.03
2023-04-23T06:36:33.107Z,6.13
2023-04-23T06:37:35.943Z,7.00
2023-04-23T06:38:37.989Z,6.90
2023-04-23T06:39:40.738Z,7.10
2023-04-23T06:40:42.965Z,6.93
2023-04-23T06:41:45.748Z,7.53
2023-04-23T06:42:58.897Z,7.37
2023-04-23T06:44:34.380Z,6.57
2023-04-23T06:45:38.222Z,6.37
2023-04-23T06:46:40.364Z,7.23
2023-04-23T06:47:43.177Z,7.53
2023-04-23T06:48:45.004Z,5.67
2023-04-23T06:49:47.842Z,7.13
2023-04-23T06:50:51.003Z,6.43
2023-04-23T06:51:54.530Z,6.00
2023-04-23T06:52:57.616Z,6.77
2023-04-23T06:54:00.357Z,7.00
2023-04-23T06:55:02.172Z,6.30
2023-04-23T06:56:05.681Z,6.63
2023-04-23T06:57:07.551Z,5.87
2023-04-23T06:58:11.855Z,6.17
2023-04-23T06:59:14.565Z,6.20
2023-04-23T07:00:23.163Z,6.33
2023-04-23T07:01:25.797Z,6.30
2023-04-23T07:02:28.758Z,5.87
2023-04-23T07:03:31.385Z,6.47
2023-04-23T07:04:34.542Z,5.83
2023-04-23T07:05:36.599Z,5.60
2023-04-23T07:06:40.705Z,5.67
2023-04-23T07:07:43.515Z,5.37
2023-04-23T07:08:46.406Z,4.97
2023-04-23T07:09:48.625Z,4.60
2023-04-23T07:10:51.712Z,4.77
2023-04-23T07:11:53.629Z,4.37
2023-04-23T07:12:56.456Z,5.00
2023-04-23T07:13:59.004Z,4.37
2023-04-23T07:15:02.332Z,4.60
2023-04-23T07:16:04.322Z,4.47
2023-04-23T07:17:07.809Z,4.33
2023-04-23T07:18:10.370Z,4.33
2023-04-23T07:19:13.173Z,4.57
2023-04-23T07:20:15.206Z,4.00
2023-04-23T07:21:18.004Z,4.50
2023-04-23T07:22:21.245Z,4.50
2023-04-23T07:23:24.047Z,4.60
2023-04-23T07:24:26.809Z,4.30
2023-04-23T07:25:29.575Z,4.50
2023-04-23T07:26:31.345Z,4.97
2023-04-23T07:27:34.502Z,4.63
2023-04-23T07:28:36.405Z,5.03
2023-04-23T07:29:39.380Z,4.70
2023-04-23T07:30:41.220Z,4.87
2023-04-23T07:31:44.395Z,4.40
2023-04-23T07:32:47.323Z,4.13
2023-04-23T07:33:49.215Z,4.80
2023-04-23T07:34:52.435Z,5.00
2023-04-23T07:35:54.204Z,4.07
2023-04-23T07:36:57.888Z,4.13
2023-04-23T07:38:01.042Z,4.60
2023-04-23T07:39:04.656Z,4.43
2023-04-23T07:40:08.424Z,4.13
2023-04-23T07:41:11.188Z,3.87
2023-04-23T07:42:13.257Z,3.70
2023-04-23T07:43:16.884Z,4.17
2023-04-23T07:44:18.746Z,3.97
2023-04-23T07:45:21.580Z,4.17
2023-04-23T07:46:23.457Z,4.37
2023-04-23T07:47:26.346Z,3.93
2023-04-23T07:48:28.124Z,3.90
2023-04-23T07:49:31.108Z,3.70
2023-04-23T07:50:32.926Z,4.30
2023-04-23T07:51:36.208Z,3.97
2023-04-23T07:52:38.169Z,3.57
2023-04-23T07:53:42.326Z,3.80
2023-04-23T07:54:46.660Z,3.87
2023-04-23T07:55:48.562Z,3.73
2023-04-23T07:56:51.327Z,4.23
2023-04-23T07:57:54.019Z,3.97
2023-04-23T07:58:58.256Z,4.00
2023-04-23T08:00:00.555Z,3.73
2023-04-23T08:01:03.851Z,3.50
2023-04-23T08:02:06.319Z,4.07
2023-04-23T08:03:09.289Z,3.20
2023-04-23T08:04:12.241Z,3.87
2023-04-23T08:05:15.485Z,3.10
2023-04-23T08:06:18.308Z,4.20
2023-04-23T08:07:21.278Z,3.70
2023-04-23T08:08:23.160Z,3.70
2023-04-23T08:09:27.528Z,3.37
2023-04-23T08:10:29.521Z,3.50
2023-04-23T08:11:32.782Z,2.90
2023-04-23T08:12:35.850Z,3.20
2023-04-23T08:13:38.632Z,3.40
2023-04-23T08:14:40.483Z,3.27
2023-04-23T08:15:49.998Z,3.87
2023-04-23T08:16:51.775Z,3.40
2023-04-23T08:17:54.589Z,3.27
2023-04-23T08:19:05.246Z,3.30
2023-04-23T08:20:09.727Z,3.23
2023-04-23T08:21:13.378Z,4.23
2023-04-23T08:22:16.326Z,3.03
2023-04-23T08:23:18.141Z,2.73
2023-04-23T08:24:20.939Z,3.57
2023-04-23T08:25:24.305Z,3.97
2023-04-23T08:26:27.209Z,3.60
2023-04-23T08:27:29.206Z,3.70
2023-04-23T08:28:31.949Z,4.20
2023-04-23T08:29:33.752Z,3.37
2023-04-23T08:30:36.592Z,4.30
2023-04-23T08:31:38.855Z,3.23
2023-04-23T08:32:41.677Z,3.60
2023-04-23T08:34:03.808Z,3.17
2023-04-23T08:35:08.045Z,3.00
2023-04-23T08:36:11.064Z,3.70
2023-04-23T08:37:23.062Z,3.00
2023-04-23T08:38:26.757Z,3.57
2023-04-23T08:39:28.614Z,3.47
2023-04-23T08:40:34.072Z,3.27
2023-04-23T08:41:39.781Z,3.13
2023-04-23T08:42:44.568Z,3.83
2023-04-23T08:43:47.912Z,3.10
2023-04-23T08:44:53.106Z,4.13
2023-04-23T08:45:56.781Z,3.43
2023-04-23T08:47:01.630Z,2.90
2023-04-23T08:48:05.989Z,3.33
2023-04-23T08:49:08.082Z,3.47
2023-04-23T08:50:11.863Z,4.03
2023-04-23T08:51:16.685Z,4.83
2023-04-23T08:52:24.518Z,3.20
2023-04-23T08:53:28.148Z,3.23
2023-04-23T08:54:33.025Z,3.47
2023-04-23T08:55:37.355Z,3.27
2023-04-23T08:56:40.175Z,3.97
2023-04-23T08:57:43.702Z,3.90
2023-04-23T08:58:45.783Z,4.00
2023-04-23T08:59:48.736Z,3.97
2023-04-23T09:00:51.661Z,3.60
2023-04-23T09:01:53.901Z,3.50
2023-04-23T09:02:57.217Z,3.70
2023-04-23T09:04:00.453Z,4.17
2023-04-23T09:05:04.251Z,3.90
2023-04-23T09:06:06.543Z,4.03
2023-04-23T09:07:11.317Z,4.23
2023-04-23T09:08:14.212Z,3.60
2023-04-23T09:09:17.448Z,3.47
2023-04-23T09:10:20.201Z,3.60
2023-04-23T09:11:24.068Z,3.97
2023-04-23T09:12:27.021Z,3.67
2023-04-23T09:13:31.459Z,4.30
2023-04-23T09:14:34.172Z,3.33
2023-04-23T09:15:43.277Z,3.73
2023-04-23T09:16:45.240Z,3.20
2023-04-23T09:17:49.759Z,3.40
2023-04-23T09:18:52.749Z,3.80
2023-04-23T09:19:56.112Z,3.20
2023-04-23T09:20:59.073Z,3.17
2023-04-23T09:22:02.050Z,3.83
2023-04-23T09:23:08.443Z,3.93
2023-04-23T09:24:12.496Z,3.70
2023-04-23T09:25:17.598Z,3.43
2023-04-23T09:26:21.040Z,2.70
2023-04-23T09:27:26.775Z,3.00
2023-04-23T09:28:36.156Z,3.63
2023-04-23T09:29:39.381Z,3.33
2023-04-23T09:30:44.461Z,3.27
2023-04-23T09:31:47.770Z,3.30
2023-04-23T09:32:50.843Z,3.10
2023-04-23T09:33:53.598Z,2.60
2023-04-23T09:34:57.659Z,3.00
2023-04-23T09:35:59.506Z,3.30
2023-04-23T09:37:03.653Z,2.87
2023-04-23T09:38:08.114Z,3.07
2023-04-23T09:39:13.639Z,2.73
2023-04-23T09:40:16.382Z,3.50
2023-04-23T09:41:23.890Z,3.00
2023-04-23T09:42:28.151Z,3.00
2023-04-23T09:43:31.491Z,2.73
2023-04-23T09:44:33.475Z,2.93
2023-04-23T09:45:36.352Z,3.07
2023-04-23T09:46:39.367Z,2.83
2023-04-23T09:47:49.614Z,2.93
2023-04-23T09:48:52.658Z,4.10
2023-04-23T09:49:55.431Z,3.10
2023-04-23T09:50:57.306Z,2.70
2023-04-23T09:52:07.226Z,3.00
2023-04-23T09:53:11.106Z,2.90
2023-04-23T09:54:14.102Z,3.70
2023-04-23T09:55:16.918Z,3.17
2023-04-23T09:56:20.845Z,3.60
2023-04-23T09:57:25.922Z,3.20
2023-04-23T09:58:29.207Z,3.20
2023-04-23T09:59:47.005Z,3.40
2023-04-23T10:00:51.430Z,4.07
2023-04-23T10:01:53.612Z,2.77
2023-04-23T10:02:56.622Z,2.90
2023-04-23T10:03:59.037Z,3.03
2023-04-23T10:05:14.287Z,2.87
2023-04-23T10:06:42.428Z,3.10
2023-04-23T10:07:52.699Z,3.27
2023-04-23T10:08:55.158Z,3.57
2023-04-23T10:09:57.931Z,2.70
2023-04-23T10:11:09.658Z,2.87
2023-04-23T10:12:40.968Z,3.67
2023-04-23T10:13:47.225Z,3.10
2023-04-23T10:14:53.825Z,2.63
2023-04-23T10:16:07.155Z,2.40
2023-04-23T10:17:13.553Z,2.77
2023-04-23T10:18:16.402Z,3.00
2023-04-23T10:19:22.559Z,3.20
2023-04-23T10:20:24.894Z,3.00
2023-04-23T10:21:36.737Z,2.90
2023-04-23T10:22:49.841Z,2.87
2023-04-23T10:23:51.720Z,2.70
2023-04-23T10:24:57.231Z,2.80
2023-04-23T10:26:01.253Z,2.83
2023-04-23T10:27:05.547Z,2.63
2023-04-23T10:28:11.714Z,2.93
2023-04-23T10:29:15.335Z,2.90
2023-04-23T10:30:18.169Z,2.67
2023-04-23T10:31:20.730Z,3.00
2023-04-23T10:32:24.257Z,3.03
2023-04-23T10:33:30.818Z,2.60
2023-04-23T10:34:37.398Z,2.70
2023-04-23T10:35:40.543Z,2.70
2023-04-23T10:36:42.419Z,2.70
2023-04-23T10:37:46.431Z,2.23
2023-04-23T10:38:57.387Z,2.70
2023-04-23T10:40:09.284Z,2.80
2023-04-23T10:41:11.389Z,3.13
2023-04-23T10:42:14.707Z,2.83
2023-04-23T10:43:17.133Z,3.00
2023-04-23T10:44:45.082Z,2.50
2023-04-23T10:45:44.856Z,2.50
2023-04-23T10:46:52.161Z,2.40
2023-04-23T10:47:56.149Z,2.90
2023-04-23T10:49:14.613Z,2.50
2023-04-23T10:50:23.170Z,2.30
2023-04-23T10:52:53.227Z,2.30
2023-04-23T10:53:55.093Z,2.90
2023-04-23T10:54:59.914Z,2.73
2023-04-23T10:56:06.567Z,2.37
2023-04-23T10:57:10.616Z,2.37
2023-04-23T10:58:12.483Z,2.57
2023-04-23T10:59:23.252Z,2.60
2023-04-23T11:00:25.728Z,2.77
2023-04-23T11:01:30.171Z,2.17
2023-04-23T11:02:43.910Z,2.50
2023-04-23T11:03:47.874Z,2.17
2023-04-23T11:04:54.952Z,2.30
2023-04-23T11:05:57.839Z,2.80
2023-04-23T11:07:06.392Z,2.50
2023-04-23T11:08:18.686Z,2.50
2023-04-23T11:09:41.030Z,2.50
2023-04-23T11:10:52.434Z,2.40
2023-04-23T11:11:56.213Z,2.67
2023-04-23T11:12:59.013Z,2.33
2023-04-23T11:14:11.708Z,2.67
2023-04-23T11:15:17.957Z,2.20
2023-04-23T11:16:22.482Z,3.13
2023-04-23T11:18:02.205Z,2.50
2023-04-23T11:19:08.698Z,2.40
2023-04-23T11:20:14.379Z,3.03
2023-04-23T11:21:16.253Z,2.77
2023-04-23T11:22:20.493Z,2.60
2023-04-23T11:23:32.264Z,3.07
2023-04-23T11:24:38.889Z,2.20
2023-04-23T11:25:42.315Z,2.60
2023-04-23T11:26:45.486Z,2.60
2023-04-23T11:27:50.402Z,2.40
2023-04-23T11:28:53.261Z,2.73
2023-04-23T11:29:58.279Z,2.57
2023-04-23T11:31:03.411Z,2.67
2023-04-23T11:32:10.416Z,2.73
2023-04-23T11:33:13.227Z,2.47
2023-04-23T11:34:15.752Z,2.60
2023-04-23T11:35:19.640Z,2.50
2023-04-23T11:36:22.858Z,2.40
2023-04-23T11:37:25.798Z,2.93
2023-04-23T11:38:33.562Z,2.70
2023-04-23T11:39:36.328Z,2.53
2023-04-23T11:40:40.328Z,2.40
2023-04-23T11:41:43.849Z,2.67
2023-04-23T11:42:48.188Z,2.50
2023-04-23T11:43:49.962Z,2.60
2023-04-23T11:44:53.912Z,2.60
2023-04-23T11:45:55.920Z,2.50
2023-04-23T11:47:03.273Z,2.40
2023-04-23T11:48:06.799Z,2.60
2023-04-23T11:49:10.447Z,3.30
2023-04-23T11:50:18.949Z,3.07
2023-04-23T11:51:25.944Z,2.90
2023-04-23T11:52:28.791Z,2.17
2023-04-23T11:53:31.184Z,2.40
2023-04-23T11:54:34.412Z,2.47
2023-04-23T11:55:36.617Z,2.60
2023-04-23T11:56:39.376Z,2.97
2023-04-23T11:57:42.230Z,3.57
2023-04-23T11:58:45.130Z,2.70
2023-04-23T11:59:47.862Z,2.47
2023-04-23T12:00:57.476Z,2.60
2023-04-23T12:02:01.689Z,2.30
2023-04-23T12:03:05.981Z,2.33
2023-04-23T12:04:13.802Z,2.77
2023-04-23T12:05:16.742Z,2.37
2023-04-23T12:06:18.787Z,2.67
2023-04-23T12:07:32.934Z,2.87
2023-04-23T12:08:36.327Z,2.40
2023-04-23T12:09:39.159Z,2.57
2023-04-23T12:10:46.166Z,2.90
2023-04-23T12:11:50.810Z,2.67
2023-04-23T12:12:53.054Z,2.40
2023-04-23T12:13:55.940Z,2.70
2023-04-23T12:15:04.031Z,3.03
2023-04-23T12:16:09.162Z,2.40
2023-04-23T12:17:14.683Z,2.70
2023-04-23T12:18:16.899Z,2.63
2023-04-23T12:19:21.387Z,2.70
2023-04-23T12:20:23.342Z,2.97
2023-04-23T12:21:28.627Z,2.30
2023-04-23T12:22:31.463Z,2.90
2023-04-23T12:23:33.589Z,2.40
2023-04-23T12:24:47.618Z,2.30
2023-04-23T12:25:49.397Z,2.90
2023-04-23T12:26:54.607Z,2.33
2023-04-23T12:27:59.986Z,2.63
2023-04-23T12:29:02.714Z,2.60
2023-04-23T12:30:07.406Z,2.57
2023-04-23T12:31:10.283Z,2.90
2023-04-23T12:32:15.784Z,2.70
2023-04-23T12:33:18.273Z,2.37
2023-04-23T12:34:21.856Z,2.60
2023-04-23T12:35:38.848Z,3.10
2023-04-23T12:36:45.612Z,3.27
2023-04-23T12:37:47.369Z,2.73
2023-04-23T12:38:50.119Z,2.47
2023-04-23T12:39:53.033Z,3.05
2023-04-23T12:40:57.496Z,2.80
2023-04-23T12:42:02.907Z,2.50
2023-04-23T12:43:05.995Z,2.00
2023-04-23T12:44:07.870Z,2.42
2023-04-23T12:45:11.118Z,2.65
2023-04-23T12:46:13.201Z,2.60
2023-04-23T12:47:19.420Z,2.42
2023-04-23T12:48:21.723Z,2.63
2023-04-23T12:49:27.035Z,2.40
2023-04-23T12:50:29.995Z,2.63
2023-04-23T12:51:32.268Z,2.47
2023-04-23T12:52:35.344Z,2.67
2023-04-23T12:53:37.428Z,2.63
2023-04-23T12:54:41.272Z,2.80
2023-04-23T12:55:45.637Z,2.40
2023-04-23T12:56:47.682Z,2.53
2023-04-23T12:57:50.501Z,2.63
2023-04-23T12:58:52.836Z,2.58
2023-04-23T12:59:56.437Z,2.90
2023-04-23T13:00:58.369Z,2.60
2023-04-23T13:02:03.053Z,2.60
2023-04-23T13:03:06.891Z,2.80
2023-04-23T13:04:09.923Z,2.40
2023-04-23T13:05:11.866Z,2.33
2023-04-23T13:06:14.634Z,2.40
2023-04-23T13:07:16.500Z,3.13
2023-04-23T13:08:19.573Z,2.80
2023-04-23T13:09:21.987Z,2.60
2023-04-23T13:10:24.811Z,2.67
2023-04-23T13:11:26.665Z,3.27
2023-04-23T13:12:29.453Z,2.63
2023-04-23T13:13:31.269Z,2.60
2023-04-23T13:14:34.343Z,3.57
2023-04-23T13:15:36.147Z,2.77
2023-04-23T13:16:38.997Z,2.47
2023-04-23T13:17:41.473Z,2.30
2023-04-23T13:18:45.620Z,2.63
2023-04-23T13:19:47.418Z,3.00
2023-04-23T13:20:50.516Z,2.60
2023-04-23T13:21:52.266Z,2.30
2023-04-23T13:22:55.076Z,2.73
2023-04-23T13:23:57.297Z,2.33
2023-04-23T13:25:00.419Z,2.43
2023-04-23T13:26:03.519Z,2.60
2023-04-23T13:27:06.374Z,2.80
2023-04-23T13:28:08.210Z,2.30
2023-04-23T13:29:10.950Z,2.50
2023-04-23T13:30:13.838Z,2.47
2023-04-23T13:31:16.709Z,2.50
2023-04-23T13:32:19.511Z,2.50
2023-04-23T13:33:24.376Z,2.60
2023-04-23T13:34:28.487Z,2.43
2023-04-23T13:35:30.340Z,2.47
2023-04-23T13:36:33.236Z,2.13
2023-04-23T13:37:35.093Z,2.90
2023-04-23T13:38:37.990Z,2.80
2023-04-23T13:39:41.615Z,2.30
2023-04-23T13:40:44.741Z,2.60
2023-04-23T13:41:59.120Z,2.73
2023-04-23T13:43:09.549Z,2.63
2023-04-23T13:44:13.464Z,2.37
2023-04-23T13:45:16.446Z,2.37
2023-04-23T13:46:19.977Z,2.40
2023-04-23T13:47:21.990Z,2.70
2023-04-23T13:48:28.586Z,2.70
2023-04-23T13:49:32.773Z,2.93
2023-04-23T13:50:34.596Z,5.30
2023-04-23T13:51:37.330Z,3.43
2023-04-23T13:52:39.829Z,2.50
2023-04-23T13:53:43.316Z,2.40
2023-04-23T13:54:47.750Z,2.43
2023-04-23T13:55:51.179Z,2.43
2023-04-23T13:56:53.058Z,2.60
2023-04-23T13:57:57.855Z,2.70
2023-04-23T13:59:18.436Z,2.37
2023-04-23T14:00:22.482Z,2.67
2023-04-23T14:01:24.359Z,2.43
2023-04-23T14:02:27.755Z,2.23
2023-04-23T14:03:30.963Z,2.50
2023-04-23T14:04:34.172Z,2.37
2023-04-23T14:05:37.232Z,2.40
2023-04-23T14:06:39.025Z,2.80